Latest Weather Observations for Swan Hill

IDN60801

Issued at 11:05 am EDT Thursday 5 March 2015 (issued every 30 minutes, with the page automatically refreshed every 10 minutes)

About weather observations | Map of weather stations | Latest weather observations for NSW | Other Formats
Station Details ID: 077094 Name: SWAN HILL AERODROME Lat: -35.38 Lon: 143.54 Height: 71.0 m
Data from the previous 72 hours. | See also: Recent months at Swan Hill
Date/Time
EDT
Temp
°C
App
Temp
°C
Dew
Point
Rel
Hum
%
Delta-T
°C
Wind Press
QNH
hPa
Press
MSL
hPa
Rain
since 9 am
mm
Dir
 
Spd
km/h
Gust
km/h
Spd
kts
Gust
kts
05/11:00am 17.7 10.6 1.2 33 7.3 S 28 43 15 23 1019.6 1019.4 0.0
05/10:46am 16.9 9.7 1.0 34 7.0 SSW 28 46 15 25 1019.4 1019.2 0.0
05/10:30am 16.6 9.5 1.1 35 6.8 S 28 44 15 24 1019.5 1019.3 0.0
05/10:00am 15.9 8.8 1.2 37 6.4 SSW 28 43 15 23 1019.5 1019.3 0.0
05/09:30am 15.1 7.2 0.9 38 6.1 S 32 50 17 27 1019.3 1019.0 0.0
05/09:19am 14.9 7.7 0.7 38 6.1 S 28 46 15 25 1019.3 1019.0 0.0
05/09:00am 14.7 9.3 2.6 44 5.4 S 20 32 11 17 1019.0 1018.7 0.0
05/08:30am 14.0 9.3 5.1 55 4.2 SSW 19 30 10 16 1018.5 1018.2 0.0
05/08:00am 13.2 9.1 6.1 62 3.4 SSW 17 28 9 15 1017.4 1017.2 0.0
05/07:30am 13.4 7.5 6.0 61 3.5 SSW 26 35 14 19 1016.9 1016.7 0.0
05/07:00am 13.8 7.7 6.4 61 3.6 SSW 28 39 15 21 1016.5 1016.3 0.0
05/06:30am 14.1 7.2 7.4 64 3.3 SW 33 48 18 26 1016.0 1015.8 0.0
05/06:20am 14.2 7.6 7.9 66 3.1 SW 32 50 17 27 1015.7 1015.5 0.0
05/06:00am 14.4 8.1 8.8 69 2.8 SW 32 46 17 25 1015.4 1015.2 0.0
05/05:30am 14.6 8.2 9.4 71 2.7 SW 33 46 18 25 1014.9 1014.7 0.0
05/05:00am 15.1 9.8 9.7 70 2.8 SW 28 44 15 24 1014.4 1014.2 0.0
05/04:30am 15.5 9.9 10.3 71 2.7 SW 30 41 16 22 1014.1 1013.9 0.0
05/04:02am 16.6 8.8 11.3 71 2.9 WSW 43 65 23 35 1013.9 1013.7 0.0
05/04:00am 17.0 10.0 11.1 68 3.2 WSW 39 54 21 29 1013.7 1013.5 0.0
05/03:58am 16.9 9.8 11.0 68 3.2 WSW 39 54 21 29 1013.7 1013.5 0.0
05/03:30am 16.5 11.5 10.8 69 3.1 WSW 28 35 15 19 1013.7 1013.5 0.0
05/03:00am 17.0 10.6 10.6 66 3.4 WSW 35 46 19 25 1013.8 1013.6 0.0
05/02:30am 17.9 10.6 10.3 61 4.1 WSW 39 52 21 28 1013.8 1013.6 0.0
05/02:00am 18.6 11.9 9.7 56 4.7 WSW 35 48 19 26 1013.8 1013.6 0.0
05/01:30am 18.2 12.6 8.7 54 4.9 WSW 28 37 15 20 1014.0 1013.8 0.0
05/01:00am 18.4 12.1 8.9 54 5.0 WSW 32 43 17 23 1013.8 1013.6 0.0
05/12:30am 18.2 11.8 8.7 54 4.9 WSW 32 43 17 23 1013.7 1013.5 0.0
05/12:00am 18.3 11.8 8.8 54 4.9 SW 33 43 18 23 1013.8 1013.6 0.0
 
Date/Time
EDT
Temp
°C
App
Temp
°C
Dew
Point
Rel
Hum
%
Delta-T
°C
Wind Press
QNH
hPa
Press
MSL
hPa
Rain
since 9 am
mm
Dir
 
Spd
km/h
Gust
km/h
Spd
kts
Gust
kts
04/11:30pm 18.6 11.3 8.8 53 5.1 SW 37 48 20 26 1014.0 1013.8 0.0
04/11:00pm 19.4 12.8 8.4 49 5.7 SW 33 44 18 24 1013.7 1013.5 0.0
04/10:30pm 20.1 13.7 8.4 47 6.1 SW 32 43 17 23 1013.6 1013.4 0.0
04/10:00pm 20.8 14.4 8.4 45 6.5 SW 32 44 17 24 1013.2 1013.0 0.0
04/09:30pm 22.0 16.5 7.4 39 7.6 SW 26 37 14 20 1012.6 1012.4 0.0
04/09:00pm 22.8 17.5 6.6 35 8.3 SW 24 32 13 17 1012.2 1012.0 0.0
04/08:30pm 24.0 18.9 5.8 31 9.3 WSW 22 28 12 15 1011.9 1011.7 0.0
04/08:00pm 24.7 18.3 5.0 28 10.0 WSW 28 33 15 18 1012.0 1011.8 0.0
04/07:30pm 25.8 18.6 4.9 26 10.6 WSW 32 41 17 22 1011.9 1011.7 0.0
04/07:00pm 26.9 19.9 4.0 23 11.5 WSW 30 37 16 20 1011.7 1011.5 0.0
04/06:30pm 27.1 19.9 2.9 21 12.0 WSW 30 39 16 21 1011.7 1011.5 0.0
04/06:00pm 27.2 19.9 2.3 20 12.2 WSW 30 43 16 23 1011.7 1011.5 0.0
04/05:30pm 27.9 20.1 1.4 18 12.8 WSW 32 44 17 24 1011.9 1011.7 0.0
04/05:00pm 28.0 20.8 0.7 17 13.1 W 28 43 15 23 1012.0 1011.8 0.0
04/04:30pm 27.9 20.3 0.6 17 13.0 WSW 30 43 16 23 1012.6 1012.4 0.0
04/04:00pm 27.6 20.7 0.4 17 12.9 WSW 26 39 14 21 1012.8 1012.6 0.0
04/03:30pm 26.8 20.5 1.3 19 12.2 WSW 24 37 13 20 1013.0 1012.8 0.0
04/03:00pm 26.4 20.1 1.7 20 11.9 WSW 24 35 13 19 1013.4 1013.2 0.0
04/02:30pm 25.4 19.7 2.8 23 11.0 W 22 41 12 22 1013.9 1013.7 0.0
04/02:00pm 25.6 19.4 2.3 22 11.3 W 24 39 13 21 1014.3 1014.1 0.0
04/01:30pm 24.1 18.0 2.9 25 10.3 WSW 24 35 13 19 1014.8 1014.6 0.0
04/01:00pm 23.5 18.7 5.4 31 9.1 SW 20 33 11 18 1015.3 1015.1 0.0
04/12:30pm 22.5 18.0 6.3 35 8.3 WSW 19 30 10 16 1015.7 1015.5 0.0
04/12:00pm 21.7 18.6 7.2 39 7.5 SW 13 28 7 15 1016.1 1015.9 0.0
04/11:30am 20.7 17.2 7.0 41 7.0 SSW 15 24 8 13 1016.6 1016.4 0.0
04/11:00am 20.2 16.7 7.2 43 6.6 SW 15 26 8 14 1016.7 1016.5 0.0
04/10:30am 19.2 15.5 7.9 48 5.8 SSW 17 28 9 15 1016.8 1016.6 0.0
04/10:00am 17.3 14.4 8.2 55 4.6 SW 13 19 7 10 1016.9 1016.7 0.0
04/09:30am 16.4 13.5 8.1 58 4.2 SSW 13 17 7 9 1016.9 1016.7 0.0
04/09:00am 16.1 13.6 8.1 59 4.0 SSW 11 17 6 9 1016.6 1016.4 0.0
04/08:30am 15.2 12.3 8.0 62 3.6 SSW 13 20 7 11 1016.5 1016.3 0.0
04/08:00am 14.9 12.7 7.9 63 3.5 SSW 9 15 5 8 1016.1 1015.9 0.0
04/07:30am 14.3 11.7 7.6 64 3.3 SSW 11 15 6 8 1015.6 1015.4 0.0
04/07:00am 14.4 11.3 7.2 62 3.5 S 13 20 7 11 1015.1 1014.9 0.0
04/06:30am 14.2 11.3 6.3 59 3.8 S 11 17 6 9 1014.9 1014.7 0.0
04/06:00am 14.3 11.2 5.4 55 4.2 S 11 17 6 9 1014.6 1014.4 0.0
04/05:30am 14.2 10.9 4.5 52 4.5 S 11 17 6 9 1014.3 1014.1 0.0
04/05:00am 14.6 11.1 3.7 48 5.0 SSW 11 13 6 7 1014.1 1013.9 0.0
04/04:30am 15.1 11.1 3.0 44 5.5 SSW 13 17 7 9 1014.1 1013.9 0.0
04/04:00am 15.4 11.7 2.2 41 5.9 SSW 11 17 6 9 1014.1 1013.9 0.0
04/03:30am 15.8 12.0 1.5 38 6.3 SSW 11 15 6 8 1013.9 1013.7 0.0
04/03:00am 16.5 12.6 1.4 36 6.7 SSW 11 17 6 9 1014.0 1013.8 0.0
04/02:30am 17.3 13.4 1.3 34 7.1 SW 11 15 6 8 1014.4 1014.2 0.0
04/02:00am 17.9 14.8 1.4 33 7.4 SSW 7 9 4 5 1014.4 1014.2 0.0
04/01:30am 19.4 15.5 1.4 30 8.2 SSW 11 17 6 9 1014.5 1014.3 0.0
04/01:00am 20.2 15.8 0.6 27 8.8 SSW 13 20 7 11 1014.7 1014.5 0.0
04/12:30am 20.4 15.8 -0.8 24 9.3 SSW 13 17 7 9 1014.6 1014.4 0.0
04/12:00am 20.6 16.0 -1.2 23 9.5 SSW 13 19 7 10 1014.7 1014.5 0.0
 
Date/Time
EDT
Temp
°C
App
Temp
°C
Dew
Point
Rel
Hum
%
Delta-T
°C
Wind Press
QNH
hPa
Press
MSL
hPa
Rain
since 9 am
mm
Dir
 
Spd
km/h
Gust
km/h
Spd
kts
Gust
kts
03/11:30pm 21.9 16.9 -1.4 21 10.2 SSW 15 20 8 11 1014.7 1014.5 0.0
03/11:00pm 22.0 17.4 -0.7 22 10.1 SSW 13 17 7 9 1014.7 1014.5 0.0
03/10:30pm 22.5 18.4 2.1 26 9.6 SW 13 17 7 9 1014.6 1014.4 0.0
03/10:00pm 23.3 19.3 2.7 26 9.9 SW 13 17 7 9 1014.4 1014.2 0.0
03/09:30pm 23.7 20.0 2.5 25 10.2 SW 11 13 6 7 1014.2 1014.0 0.0
03/09:00pm 24.9 21.2 2.4 23 10.8 SW 11 13 6 7 1013.8 1013.6 0.0
03/08:30pm 26.1 22.1 2.7 22 11.4 SSW 13 15 7 8 1013.5 1013.3 0.0
03/08:00pm 27.5 23.5 2.6 20 12.3 SW 13 17 7 9 1013.2 1013.0 0.0
03/07:30pm 28.8 24.4 2.9 19 12.9 SSW 15 24 8 13 1013.1 1012.9 0.0
03/07:00pm 29.5 24.7 2.7 18 13.4 SW 17 24 9 13 1012.8 1012.6 0.0
03/06:30pm 29.9 24.7 2.2 17 13.8 SW 19 26 10 14 1012.9 1012.7 0.0
03/06:00pm 29.6 24.6 1.1 16 13.9 SW 17 28 9 15 1013.0 1012.8 0.0
03/05:30pm 30.1 23.8 1.5 16 14.1 WSW 24 39 13 21 1013.0 1012.8 0.0
03/05:00pm 30.5 25.7 2.7 17 14.0 SW 17 33 9 18 1012.8 1012.6 0.0
03/04:30pm 30.5 25.9 3.5 18 13.8 S 17 30 9 16 1012.9 1012.7 0.0
03/04:00pm 30.3 25.4 4.1 19 13.5 SW 19 35 10 19 1013.3 1013.1 0.0
03/03:30pm 30.8 26.1 2.9 17 14.1 SW 17 35 9 19 1013.6 1013.4 0.0
03/03:00pm 29.8 24.7 2.9 18 13.5 SSW 19 30 10 16 1014.0 1013.8 0.0
03/02:30pm 29.5 23.6 1.9 17 13.6 SW 22 35 12 19 1014.1 1013.9 0.0
03/02:00pm 30.5 25.6 1.9 16 14.2 SW 17 28 9 15 1014.4 1014.2 0.0
03/01:30pm 30.3 25.5 2.5 17 13.9 SW 17 28 9 15 1014.6 1014.4 0.0
03/01:00pm 29.4 26.3 3.4 19 13.1 SSW 9 17 5 9 1015.0 1014.8 0.0
03/12:30pm 27.2 24.2 4.3 23 11.6 S 9 20 5 11 1015.5 1015.3 0.0
03/12:00pm 26.5 22.3 3.7 23 11.4 SSE 15 24 8 13 1015.9 1015.7 0.0
03/11:30am 25.8 22.2 4.9 26 10.6 SSE 13 19 7 10 1015.9 1015.7 0.0
03/11:00am 24.6 21.2 5.9 30 9.6 ESE 13 17 7 9 1016.0 1015.8 0.0
03/10:30am 23.5 20.2 6.3 33 8.8 ESE 13 20 7 11 1015.9 1015.7 0.0
03/10:00am 23.3 19.7 6.6 34 8.6 SE 15 22 8 12 1015.7 1015.5 0.0
03/09:30am 21.8 18.1 6.1 36 7.9 SSE 15 20 8 11 1015.7 1015.5 0.0
03/09:00am 21.4 17.2 5.7 36 7.9 SE 17 24 9 13 1015.5 1015.3 0.0
03/08:30am 20.6 16.2 5.0 36 7.7 SSE 17 24 9 13 1015.4 1015.2 0.0
03/08:00am 20.0 16.0 2.8 32 8.1 SSE 13 19 7 10 1015.0 1014.8 0.0
03/07:30am 19.9 16.3 0.9 28 8.6 S 9 13 5 7 1014.8 1014.6 0.0
03/07:00am 20.0 16.2 -0.6 25 9.0 S 9 13 5 7 1014.2 1014.0 0.0
03/06:30am 20.2 16.2 -2.2 22 9.5 S 9 15 5 8 1014.0 1013.8 0.0
03/06:00am 20.3 16.5 -3.4 20 9.8 SSE 7 9 4 5 1013.4 1013.2 0.0
03/05:30am 20.7 16.5 -3.7 19 10.1 S 9 11 5 6 1013.2 1013.0 0.0
03/05:00am 20.7 16.5 -3.7 19 10.1 S 9 13 5 7 1013.3 1013.1 0.0
03/04:30am 20.7 16.4 -4.4 18 10.2 S 9 13 5 7 1013.5 1013.3 0.0
03/04:00am 20.8 17.5 -4.4 18 10.3 SSW 4 7 2 4 1013.2 1013.0 0.0
03/03:30am 21.2 16.9 -4.8 17 10.6 SSW 9 13 5 7 1013.3 1013.1 0.0
03/03:00am 21.3 16.6 -4.7 17 10.6 S 11 17 6 9 1013.1 1012.9 0.0
03/02:30am 21.5 17.2 -4.5 17 10.7 SSW 9 13 5 7 1013.4 1013.2 0.0
03/02:00am 21.5 16.9 -4.5 17 10.7 SSW 11 15 6 8 1013.4 1013.2 0.0
03/01:30am 21.8 17.6 -4.3 17 10.8 SSW 9 15 5 8 1013.5 1013.3 0.0
03/01:00am 22.0 17.9 -3.4 18 10.7 S 9 13 5 7 1013.4 1013.2 0.0
03/12:30am 22.3 18.6 -3.1 18 10.8 SSW 7 11 4 6 1013.6 1013.4 0.0
03/12:00am 22.5 18.8 -3.0 18 10.9 S 7 9 4 5 1013.4 1013.2 0.0
 
Date/Time
EDT
Temp
°C
App
Temp
°C
Dew
Point
Rel
Hum
%
Delta-T
°C
Wind Press
QNH
hPa
Press
MSL
hPa
Rain
since 9 am
mm
Dir
 
Spd
km/h
Gust
km/h
Spd
kts
Gust
kts
02/11:30pm 22.9 18.8 -3.4 17 11.2 S 9 13 5 7 1013.8 1013.6 0.0
02/11:00pm 23.2 18.7 -3.2 17 11.3 S 11 15 6 8 1014.0 1013.8 0.0
02/10:30pm 23.5 19.1 -2.2 18 11.2 S 11 17 6 9 1013.8 1013.6 0.0
02/10:00pm 24.0 19.3 -1.8 18 11.4 S 13 19 7 10 1013.9 1013.7 0.0
02/09:30pm 24.5 19.9 -1.3 18 11.6 S 13 20 7 11 1013.7 1013.5 0.0
02/09:00pm 24.8 20.3 -0.4 19 11.5 S 13 19 7 10 1013.5 1013.3 0.0
02/08:30pm 25.4 20.2 0.1 19 11.7 S 17 24 9 13 1013.0 1012.8 0.0
02/08:00pm 26.2 20.7 0.8 19 12.0 S 19 26 10 14 1012.8 1012.6 0.0
02/07:30pm 26.9 21.8 0.6 18 12.4 S 17 24 9 13 1012.6 1012.4 0.0
02/07:00pm 27.9 24.4 1.4 18 12.8 SSE 9 15 5 8 1012.3 1012.1 0.0
02/06:30pm 27.9 24.9 0.6 17 13.0 ESE 6 9 3 5 1012.1 1011.9 0.0
02/06:00pm 28.3 24.4 0.9 17 13.2 ESE 11 19 6 10 1011.9 1011.7 0.0
02/05:30pm 28.6 25.6 2.0 18 13.1 ESE 7 17 4 9 1011.8 1011.6 0.0
02/05:00pm 28.7 25.2 1.3 17 13.3 ESE 9 19 5 10 1011.7 1011.5 0.0
02/04:30pm 27.8 24.7 3.5 21 12.2 ESE 9 13 5 7 1012.1 1011.9 0.0
02/04:00pm 27.9 24.8 3.6 21 12.2 NE 9 20 5 11 1012.2 1012.0 0.0
02/03:30pm 28.4 25.0 4.0 21 12.4 ENE 11 20 6 11 1012.6 1012.4 0.0
02/03:00pm 27.4 24.5 4.5 23 11.7 SSE 9 17 5 9 1013.2 1013.0 0.0
02/02:30pm 27.6 24.6 5.8 25 11.4 NNW 11 20 6 11 1013.9 1013.7 0.0
02/02:00pm 26.5 24.2 5.5 26 10.8 WNW 7 13 4 7 1014.0 1013.8 0.0
02/01:30pm 26.3 23.5 5.3 26 10.8 SE 9 15 5 8 1014.5 1014.3 0.0
02/01:00pm 25.5 22.5 6.2 29 10.0 ENE 11 19 6 10 1015.1 1014.9 0.0
02/12:30pm 25.2 23.2 8.7 35 8.9 E 9 15 5 8 1015.5 1015.3 0.0
02/12:00pm 23.8 21.5 9.0 39 8.0 NE 11 19 6 10 1016.0 1015.8 0.0
02/11:30am 21.8 19.1 9.0 44 6.8 ENE 13 19 7 10 1016.6 1016.4 0.0

Other Formats:

Comma delimited format used in spreadsheet applications
http://www.bom.gov.au/fwo/IDN60801/IDN60801.94843.axf

JavaScript Object Notation format (JSON) in row-major order
http://www.bom.gov.au/fwo/IDN60801/IDN60801.94843.json